Station Historical Data
Daily Summary for March 15, 2012 Units:  English    Metric   Both
« Previous Day
Next Day »
Daily Weekly Monthly Yearly Custom
  High: Low: Average:
Temperature: 81.2 °F 60.8 °F 68.1 °F
Dew Point: 66.7 °F 57.7 °F 61.9 °F
Humidity: 95% 50% 82%
Wind Speed: 18.0mph 0.0mph 3.8mph
Wind Gust: 19.0mph - -
Wind- - SSE
Pressure: 30.23 in 30.07 in -
Precipitation: 0.28 in    
Historical Graphs
 
 
Tabular Data for March 15, 2012
Time Temperature Dew Point Pressure Wind Wind Speed Wind Gust Humidity Rainfall Rate (Hourly) Conditions
00:00 65.9 °F 62.2 °F 30.16 in SSE 3.0 mph 4.0 mph 88% 0.00 in
00:01 65.8 °F 62.2 °F 30.16 in SSE 2.0 mph 4.0 mph 88% 0.00 in
00:02 65.7 °F 62.0 °F 30.16 in SSE 3.0 mph 4.0 mph 88% 0.00 in
00:07 65.2 °F 61.9 °F 30.16 in SSE 2.0 mph 4.0 mph 89% 0.00 in
00:12 65.1 °F 62.1 °F 30.16 in SSE 3.0 mph 4.0 mph 90% 0.00 in
00:17 64.9 °F 61.9 °F 30.16 in SSE 2.0 mph 4.0 mph 90% 0.00 in
00:22 64.8 °F 62.1 °F 30.16 in SE 3.0 mph 4.0 mph 91% 0.00 in
00:27 64.7 °F 62.0 °F 30.16 in SE 3.0 mph 4.0 mph 91% 0.00 in
00:32 64.5 °F 61.8 °F 30.16 in SW 1.0 mph 4.0 mph 91% 0.00 in
00:37 64.6 °F 62.2 °F 30.16 in SSE 2.0 mph 3.0 mph 92% 0.00 in
00:42 64.6 °F 62.2 °F 30.16 in South 2.0 mph 4.0 mph 92% 0.00 in
00:47 64.6 °F 61.9 °F 30.17 in SE 1.0 mph 4.0 mph 91% 0.00 in
00:52 64.2 °F 61.5 °F 30.17 in SSE 2.0 mph 3.0 mph 91% 0.00 in
00:57 64.0 °F 61.6 °F 30.17 in SSE 3.0 mph 4.0 mph 92% 0.00 in
01:02 63.9 °F 61.5 °F 30.17 in SSE 2.0 mph 4.0 mph 92% 0.00 in
01:07 63.9 °F 61.5 °F 30.17 in South 3.0 mph 4.0 mph 92% 0.00 in
01:12 64.0 °F 61.6 °F 30.17 in SSE 2.0 mph 4.0 mph 92% 0.00 in
01:17 64.1 °F 62.0 °F 30.17 in SSE 3.0 mph 5.0 mph 93% 0.00 in
01:22 64.3 °F 62.2 °F 30.17 in SE 2.0 mph 3.0 mph 93% 0.00 in
01:28 64.3 °F 62.2 °F 30.17 in SSE 2.0 mph 4.0 mph 93% 0.00 in
01:33 64.3 °F 62.2 °F 30.17 in SSE 5.0 mph 5.0 mph 93% 0.00 in
01:38 64.3 °F 62.2 °F 30.17 in SE 3.0 mph 6.0 mph 93% 0.00 in
01:43 64.4 °F 62.3 °F 30.17 in South 5.0 mph 5.0 mph 93% 0.00 in
01:48 64.3 °F 62.2 °F 30.17 in South 3.0 mph 4.0 mph 93% 0.00 in
01:53 64.2 °F 62.1 °F 30.17 in South 2.0 mph 4.0 mph 93% 0.00 in
01:58 64.5 °F 62.4 °F 30.17 in South 3.0 mph 5.0 mph 93% 0.00 in
02:03 64.7 °F 62.6 °F 30.17 in South 3.0 mph 6.0 mph 93% 0.00 in
02:08 64.9 °F 62.8 °F 30.17 in SSW 3.0 mph 6.0 mph 93% 0.00 in
02:13 65.0 °F 62.9 °F 30.17 in SSE 4.0 mph 4.0 mph 93% 0.00 in
02:18 65.2 °F 63.1 °F 30.17 in SSE 4.0 mph 6.0 mph 93% 0.00 in
02:23 65.3 °F 62.9 °F 30.17 in South 3.0 mph 7.0 mph 92% 0.00 in
02:28 65.2 °F 62.8 °F 30.17 in SE 2.0 mph 4.0 mph 92% 0.00 in
02:33 65.0 °F 62.6 °F 30.17 in South 2.0 mph 4.0 mph 92% 0.00 in
02:38 64.8 °F 62.4 °F 30.17 in South 2.0 mph 3.0 mph 92% 0.00 in
02:43 64.8 °F 62.7 °F 30.17 in SSW 4.0 mph 4.0 mph 93% 0.00 in
02:48 64.8 °F 62.7 °F 30.17 in SW 3.0 mph 4.0 mph 93% 0.00 in
02:53 64.7 °F 62.6 °F 30.17 in SSE 2.0 mph 4.0 mph 93% 0.00 in
02:58 64.7 °F 62.6 °F 30.17 in SSE 2.0 mph 4.0 mph 93% 0.00 in
03:03 64.6 °F 62.5 °F 30.17 in SSW 4.0 mph 4.0 mph 93% 0.00 in
03:08 64.5 °F 62.4 °F 30.17 in South 3.0 mph 5.0 mph 93% 0.00 in
03:13 64.5 °F 62.4 °F 30.17 in SSE 4.0 mph 6.0 mph 93% 0.00 in
03:18 64.1 °F 62.0 °F 30.17 in SSE 3.0 mph 5.0 mph 93% 0.00 in
03:23 64.0 °F 61.9 °F 30.17 in SSE 3.0 mph 5.0 mph 93% 0.00 in
03:28 64.1 °F 62.0 °F 30.16 in South 4.0 mph 5.0 mph 93% 0.00 in
03:33 64.1 °F 62.3 °F 30.16 in SSW 4.0 mph 6.0 mph 94% 0.00 in
03:38 64.2 °F 62.4 °F 30.16 in South 5.0 mph 5.0 mph 94% 0.00 in
03:43 64.1 °F 62.0 °F 30.16 in SSE 7.0 mph 7.0 mph 93% 0.00 in
03:48 64.0 °F 61.9 °F 30.16 in SSE 5.0 mph 6.0 mph 93% 0.00 in
03:53 63.9 °F 61.8 °F 30.16 in SW 3.0 mph 3.0 mph 93% 0.00 in
03:58 63.9 °F 61.8 °F 30.16 in SW 2.0 mph 5.0 mph 93% 0.00 in
04:03 63.7 °F 61.6 °F 30.16 in SSW 2.0 mph 3.0 mph 93% 0.00 in
04:08 63.4 °F 61.3 °F 30.16 in SSW 1.0 mph 3.0 mph 93% 0.00 in
04:13 63.6 °F 61.8 °F 30.16 in SSE 3.0 mph 4.0 mph 94% 0.00 in
04:18 63.7 °F 62.0 °F 30.16 in SSW 1.0 mph 3.0 mph 94% 0.00 in
04:23 63.7 °F 62.0 °F 30.16 in SSW 1.0 mph 3.0 mph 94% 0.00 in
04:28 63.6 °F 61.8 °F 30.16 in South 2.0 mph 2.0 mph 94% 0.00 in
04:34 63.8 °F 62.0 °F 30.16 in SE 3.0 mph 4.0 mph 94% 0.00 in
04:39 63.5 °F 61.8 °F 30.16 in SSE 3.0 mph 5.0 mph 94% 0.00 in
04:44 63.3 °F 61.5 °F 30.16 in SSE 2.0 mph 3.0 mph 94% 0.00 in
04:49 63.4 °F 61.7 °F 30.16 in South 3.0 mph 4.0 mph 94% 0.00 in
04:54 63.5 °F 61.8 °F 30.15 in SSE 2.0 mph 4.0 mph 94% 0.00 in
04:59 63.3 °F 61.5 °F 30.15 in SSE 3.0 mph 4.0 mph 94% 0.00 in
05:04 63.2 °F 61.5 °F 30.15 in SSE 3.0 mph 4.0 mph 94% 0.00 in
05:09 63.1 °F 61.3 °F 30.16 in SSE 3.0 mph 3.0 mph 94% 0.00 in
05:14 63.2 °F 61.5 °F 30.16 in SSE 1.0 mph 3.0 mph 94% 0.00 in
05:19 62.9 °F 61.2 °F 30.16 in South 2.0 mph 3.0 mph 94% 0.00 in
05:24 62.7 °F 61.0 °F 30.16 in SE 2.0 mph 2.0 mph 94% 0.00 in
05:29 62.6 °F 60.8 °F 30.16 in SSE 2.0 mph 3.0 mph 94% 0.00 in
05:34 62.8 °F 61.0 °F 30.16 in South 1.0 mph 3.0 mph 94% 0.00 in
05:39 62.9 °F 61.2 °F 30.16 in SE 2.0 mph 2.0 mph 94% 0.00 in
05:44 62.9 °F 61.2 °F 30.16 in SSE 1.0 mph 3.0 mph 94% 0.00 in
05:49 63.0 °F 61.2 °F 30.16 in SSE 1.0 mph 2.0 mph 94% 0.00 in
05:54 62.9 °F 61.2 °F 30.16 in SSE 2.0 mph 3.0 mph 94% 0.00 in
05:59 62.8 °F 61.0 °F 30.16 in SSE 2.0 mph 2.0 mph 94% 0.00 in
06:04 62.7 °F 61.0 °F 30.16 in SE 3.0 mph 3.0 mph 94% 0.00 in
06:09 62.5 °F 60.8 °F 30.17 in SSE 2.0 mph 3.0 mph 94% 0.00 in
06:14 62.6 °F 61.2 °F 30.17 in SSE 2.0 mph 3.0 mph 95% 0.00 in
06:19 62.7 °F 61.2 °F 30.17 in SSE 2.0 mph 3.0 mph 95% 0.00 in
06:24 62.6 °F 61.2 °F 30.17 in SSE 2.0 mph 3.0 mph 95% 0.00 in
06:29 62.6 °F 61.2 °F 30.17 in SSE 2.0 mph 3.0 mph 95% 0.00 in
06:34 62.6 °F 61.2 °F 30.17 in SE 1.0 mph 3.0 mph 95% 0.00 in
06:39 62.6 °F 61.2 °F 30.18 in SSE 2.0 mph 2.0 mph 95% 0.00 in
06:44 62.3 °F 60.8 °F 30.18 in SSE 2.0 mph 2.0 mph 95% 0.00 in
06:49 62.2 °F 60.8 °F 30.18 in SSW 1.0 mph 2.0 mph 95% 0.00 in
06:54 62.2 °F 60.8 °F 30.18 in SE 1.0 mph 1.0 mph 95% 0.00 in
06:59 62.0 °F 60.6 °F 30.18 in SE 1.0 mph 1.0 mph 95% 0.00 in
07:04 62.0 °F 60.6 °F 30.19 in SSE 1.0 mph 1.0 mph 95% 0.00 in
07:09 62.1 °F 60.7 °F 30.19 in SSE 1.0 mph 1.0 mph 95% 0.00 in
07:14 61.8 °F 60.4 °F 30.19 in Calm   1.0 mph 95% 0.00 in
07:19 61.7 °F 60.3 °F 30.19 in SE 1.0 mph 1.0 mph 95% 0.00 in
07:25 61.8 °F 60.4 °F 30.19 in SSE 1.0 mph 1.0 mph 95% 0.00 in
07:30 61.9 °F 60.5 °F 30.19 in SSE 1.0 mph 1.0 mph 95% 0.00 in
07:35 62.0 °F 60.6 °F 30.19 in SSE 1.0 mph 2.0 mph 95% 0.00 in
07:40 61.7 °F 60.3 °F 30.20 in Calm   1.0 mph 95% 0.00 in
07:45 61.3 °F 59.9 °F 30.20 in South 1.0 mph 1.0 mph 95% 0.00 in
07:50 61.3 °F 59.9 °F 30.20 in SSW 1.0 mph 2.0 mph 95% 0.00 in
07:55 61.3 °F 59.9 °F 30.20 in SSE 1.0 mph 2.0 mph 95% 0.00 in
08:00 61.4 °F 60.0 °F 30.20 in SSE 2.0 mph 2.0 mph 95% 0.00 in
08:05 61.6 °F 60.2 °F 30.20 in SSE 2.0 mph 3.0 mph 95% 0.00 in
08:10 61.5 °F 60.1 °F 30.21 in SSE 1.0 mph 2.0 mph 95% 0.00 in
08:15 61.4 °F 60.0 °F 30.21 in SSE 2.0 mph 2.0 mph 95% 0.00 in
08:20 61.3 °F 59.9 °F 30.21 in SE 1.0 mph 1.0 mph 95% 0.00 in
08:25 61.5 °F 60.1 °F 30.21 in SE 2.0 mph 2.0 mph 95% 0.00 in
08:30 61.5 °F 60.1 °F 30.21 in SE 2.0 mph 2.0 mph 95% 0.00 in
08:35 61.4 °F 60.0 °F 30.21 in SSE 2.0 mph 3.0 mph 95% 0.00 in
08:40 61.6 °F 60.2 °F 30.21 in SSE 2.0 mph 3.0 mph 95% 0.00 in
08:45 61.9 °F 60.5 °F 30.21 in South 2.0 mph 2.0 mph 95% 0.00 in
08:46 62.0 °F 60.6 °F 30.21 in SE 1.0 mph 2.0 mph 95% 0.00 in
08:51 62.2 °F 60.8 °F 30.21 in SSE 2.0 mph 2.0 mph 95% 0.00 in
08:56 62.4 °F 61.0 °F 30.22 in SE 1.0 mph 2.0 mph 95% 0.00 in
09:01 62.6 °F 61.2 °F 30.22 in SE 1.0 mph 2.0 mph 95% 0.00 in
09:06 62.9 °F 61.5 °F 30.22 in SSE 3.0 mph 3.0 mph 95% 0.00 in
09:11 63.1 °F 61.7 °F 30.22 in South 2.0 mph 3.0 mph 95% 0.00 in
09:16 63.6 °F 62.2 °F 30.22 in SSE 2.0 mph 2.0 mph 95% 0.00 in
09:21 64.1 °F 62.6 °F 30.22 in SSE 2.0 mph 3.0 mph 95% 0.00 in
09:26 64.6 °F 63.1 °F 30.22 in SSE 2.0 mph 3.0 mph 95% 0.00 in
09:31 65.2 °F 63.7 °F 30.22 in SE 1.0 mph 3.0 mph 95% 0.00 in
09:36 65.4 °F 63.6 °F 30.22 in SE 2.0 mph 4.0 mph 94% 0.00 in
09:41 65.6 °F 63.8 °F 30.22 in SE 2.0 mph 3.0 mph 94% 0.00 in
09:46 65.5 °F 63.7 °F 30.22 in SE 2.0 mph 3.0 mph 94% 0.00 in
09:51 65.9 °F 64.1 °F 30.22 in SE 4.0 mph 4.0 mph 94% 0.00 in
09:56 66.4 °F 64.6 °F 30.22 in SSE 2.0 mph 4.0 mph 94% 0.00 in
10:01 66.9 °F 64.8 °F 30.22 in ESE 4.0 mph 5.0 mph 93% 0.00 in
10:06 67.6 °F 65.5 °F 30.22 in SSE 3.0 mph 6.0 mph 93% 0.00 in
10:11 68.1 °F 65.7 °F 30.23 in SSE 3.0 mph 5.0 mph 92% 0.00 in
10:16 68.7 °F 66.0 °F 30.22 in SE 2.0 mph 5.0 mph 91% 0.00 in
10:21 68.8 °F 65.8 °F 30.22 in SE 2.0 mph 5.0 mph 90% 0.00 in
10:26 68.4 °F 65.4 °F 30.23 in SE 2.0 mph 5.0 mph 90% 0.00 in
10:31 68.5 °F 65.5 °F 30.23 in South 2.0 mph 4.0 mph 90% 0.00 in
10:36 69.1 °F 65.7 °F 30.23 in South 2.0 mph 5.0 mph 89% 0.00 in
10:42 69.6 °F 66.2 °F 30.23 in SSW 5.0 mph 5.0 mph 89% 0.00 in
10:47 70.2 °F 65.5 °F 30.23 in South 6.0 mph 7.0 mph 85% 0.00 in
10:52 70.5 °F 65.4 °F 30.23 in SSW 5.0 mph 10.0 mph 84% 0.00 in
10:57 70.9 °F 65.8 °F 30.23 in South 4.0 mph 9.0 mph 84% 0.00 in
11:02 71.4 °F 66.0 °F 30.22 in SW 5.0 mph 6.0 mph 83% 0.00 in
11:07 71.8 °F 65.7 °F 30.23 in SSW 7.0 mph 9.0 mph 81% 0.00 in
11:12 72.0 °F 65.5 °F 30.23 in SW 9.0 mph 10.0 mph 80% 0.00 in
11:17 72.3 °F 65.4 °F 30.22 in SW 10.0 mph 10.0 mph 79% 0.00 in
11:22 72.7 °F 66.2 °F 30.22 in SW 7.0 mph 8.0 mph 80% 0.00 in
11:27 72.9 °F 65.7 °F 30.22 in South 9.0 mph 10.0 mph 78% 0.00 in
11:32 73.4 °F 66.1 °F 30.22 in SSW 4.0 mph 8.0 mph 78% 0.00 in
11:37 73.6 °F 65.6 °F 30.22 in WSW 6.0 mph 13.0 mph 76% 0.00 in
11:42 73.6 °F 65.2 °F 30.22 in SW 7.0 mph 9.0 mph 75% 0.00 in
11:47 74.2 °F 66.5 °F 30.22 in SW 5.0 mph 9.0 mph 77% 0.00 in
11:52 74.8 °F 66.3 °F 30.21 in SW 6.0 mph 8.0 mph 75% 0.00 in
11:57 74.9 °F 65.7 °F 30.21 in SSE 4.0 mph 9.0 mph 73% 0.00 in
12:02 75.1 °F 65.9 °F 30.21 in SSE 5.0 mph 8.0 mph 73% 0.00 in
12:07 75.4 °F 65.8 °F 30.21 in SSE 2.0 mph 9.0 mph 72% 0.00 in
12:12 75.7 °F 65.2 °F 30.21 in SSW 3.0 mph 8.0 mph 70% 0.00 in
12:17 75.7 °F 65.2 °F 30.21 in SW 5.0 mph 9.0 mph 70% 0.00 in
12:22 76.3 °F 66.2 °F 30.21 in SW 3.0 mph 9.0 mph 71% 0.00 in
12:27 76.6 °F 65.7 °F 30.20 in SSE 3.0 mph 8.0 mph 69% 0.00 in
12:32 77.0 °F 65.2 °F 30.20 in South 6.0 mph 10.0 mph 67% 0.00 in
12:37 77.2 °F 65.0 °F 30.20 in SSW 7.0 mph 12.0 mph 66% 0.00 in
12:42 77.3 °F 64.6 °F 30.20 in South 8.0 mph 11.0 mph 65% 0.00 in
12:47 77.7 °F 65.0 °F 30.20 in SSW 6.0 mph 9.0 mph 65% 0.00 in
12:52 77.8 °F 65.5 °F 30.20 in South 8.0 mph 10.0 mph 66% 0.00 in
12:57 77.8 °F 65.1 °F 30.19 in South 7.0 mph 11.0 mph 65% 0.00 in
13:02 77.8 °F 64.7 °F 30.19 in South 5.0 mph 10.0 mph 64% 0.00 in
13:07 78.0 °F 66.6 °F 30.19 in SW 7.0 mph 9.0 mph 68% 0.00 in
13:13 78.1 °F 66.7 °F 30.19 in SSE 9.0 mph 9.0 mph 68% 0.00 in
13:18 78.8 °F 66.5 °F 30.19 in South 5.0 mph 10.0 mph 66% 0.00 in
13:23 78.5 °F 65.3 °F 30.18 in SSE 4.0 mph 13.0 mph 64% 0.00 in
13:28 78.7 °F 65.5 °F 30.18 in SSW 6.0 mph 9.0 mph 64% 0.00 in
13:33 79.0 °F 64.4 °F 30.18 in SSE 8.0 mph 9.0 mph 61% 0.00 in
13:38 79.2 °F 65.5 °F 30.18 in SSW 5.0 mph 8.0 mph 63% 0.00 in
13:43 78.9 °F 64.3 °F 30.17 in South 8.0 mph 14.0 mph 61% 0.00 in
13:48 78.2 °F 63.7 °F 30.17 in SW 7.0 mph 10.0 mph 61% 0.00 in
13:53 78.1 °F 64.0 °F 30.17 in South 6.0 mph 10.0 mph 62% 0.00 in
13:58 78.8 °F 64.7 °F 30.17 in SW 5.0 mph 10.0 mph 62% 0.00 in
14:03 78.8 °F 63.3 °F 30.17 in South 5.0 mph 8.0 mph 59% 0.00 in
14:08 78.6 °F 63.6 °F 30.16 in WSW 4.0 mph 7.0 mph 60% 0.00 in
14:13 78.6 °F 64.5 °F 30.16 in SW 7.0 mph 8.0 mph 62% 0.00 in
14:18 78.6 °F 64.0 °F 30.16 in SW 6.0 mph 10.0 mph 61% 0.00 in
14:23 78.5 °F 63.5 °F 30.15 in SSW 3.0 mph 10.0 mph 60% 0.00 in
14:28 78.5 °F 63.5 °F 30.15 in SW 8.0 mph 9.0 mph 60% 0.00 in
14:33 79.2 °F 63.7 °F 30.14 in SSW 6.0 mph 9.0 mph 59% 0.00 in
14:38 79.7 °F 61.1 °F 30.14 in SSW 8.0 mph 13.0 mph 53% 0.00 in
14:43 79.3 °F 62.3 °F 30.14 in SSW 4.0 mph 9.0 mph 56% 0.00 in
14:48 79.7 °F 62.6 °F 30.14 in SSW 8.0 mph 8.0 mph 56% 0.00 in
14:53 79.1 °F 62.1 °F 30.14 in SSE 3.0 mph 8.0 mph 56% 0.00 in
14:58 79.3 °F 62.8 °F 30.14 in SSW 2.0 mph 6.0 mph 57% 0.00 in
15:03 80.4 °F 63.3 °F 30.13 in SW 4.0 mph 10.0 mph 56% 0.00 in
15:08 80.2 °F 63.1 °F 30.13 in SW 2.0 mph 9.0 mph 56% 0.00 in
15:13 80.2 °F 64.1 °F 30.13 in South 6.0 mph 8.0 mph 58% 0.00 in
15:18 80.8 °F 64.2 °F 30.12 in SE 8.0 mph 9.0 mph 57% 0.00 in
15:23 81.1 °F 62.9 °F 30.12 in SW 6.0 mph 10.0 mph 54% 0.00 in
15:28 80.2 °F 62.1 °F 30.12 in WSW 8.0 mph 9.0 mph 54% 0.00 in
15:33 79.5 °F 61.9 °F 30.11 in SSE 5.0 mph 7.0 mph 55% 0.00 in
15:38 79.9 °F 63.3 °F 30.11 in SW 6.0 mph 9.0 mph 57% 0.00 in
15:43 80.8 °F 62.1 °F 30.11 in South 5.0 mph 13.0 mph 53% 0.00 in
15:48 81.2 °F 61.9 °F 30.11 in SSW 5.0 mph 12.0 mph 52% 0.00 in
15:53 80.7 °F 60.9 °F 30.11 in SSW 5.0 mph 12.0 mph 51% 0.00 in
15:58 79.7 °F 61.1 °F 30.10 in South 4.0 mph 8.0 mph 53% 0.00 in
16:04 79.9 °F 62.8 °F 30.10 in SSW 8.0 mph 8.0 mph 56% 0.00 in
16:09 80.5 °F 62.9 °F 30.10 in SSE 10.0 mph 10.0 mph 55% 0.00 in
16:14 80.0 °F 62.4 °F 30.10 in SSE 8.0 mph 10.0 mph 55% 0.00 in
16:19 79.2 °F 62.2 °F 30.10 in SSE 4.0 mph 7.0 mph 56% 0.00 in
16:24 79.0 °F 61.0 °F 30.10 in South 4.0 mph 6.0 mph 54% 0.00 in
16:29 80.3 °F 63.2 °F 30.10 in South 5.0 mph 8.0 mph 56% 0.00 in
16:34 81.2 °F 61.9 °F 30.09 in SW 11.0 mph 11.0 mph 52% 0.00 in
16:39 80.3 °F 60.5 °F 30.10 in SSW 3.0 mph 12.0 mph 51% 0.00 in
16:44 79.6 °F 61.5 °F 30.09 in SSW 3.0 mph 11.0 mph 54% 0.00 in
16:49 79.2 °F 60.6 °F 30.09 in South 5.0 mph 7.0 mph 53% 0.00 in
16:54 79.1 °F 60.0 °F 30.08 in South 7.0 mph 8.0 mph 52% 0.00 in
16:59 79.2 °F 61.1 °F 30.09 in SE 4.0 mph 6.0 mph 54% 0.00 in
17:04 79.0 °F 61.5 °F 30.09 in SSE 4.0 mph 7.0 mph 55% 0.00 in
17:09 79.1 °F 62.1 °F 30.09 in SW 5.0 mph 6.0 mph 56% 0.00 in
17:14 79.4 °F 60.8 °F 30.08 in South 6.0 mph 9.0 mph 53% 0.00 in
17:19 79.3 °F 60.2 °F 30.08 in SW 6.0 mph 12.0 mph 52% 0.00 in
17:24 79.1 °F 60.5 °F 30.08 in WSW 9.0 mph 13.0 mph 53% 0.00 in
17:29 79.0 °F 61.0 °F 30.08 in SW 7.0 mph 10.0 mph 54% 0.00 in
17:34 78.8 °F 61.3 °F 30.08 in SW 8.0 mph 9.0 mph 55% 0.00 in
17:39 78.6 °F 61.1 °F 30.07 in SW 7.0 mph 11.0 mph 55% 0.00 in
17:44 78.5 °F 61.0 °F 30.08 in SW 4.0 mph 7.0 mph 55% 0.00 in
17:49 78.2 °F 59.2 °F 30.08 in WSW 7.0 mph 10.0 mph 52% 0.00 in
17:54 78.1 °F 58.0 °F 30.08 in WSW 10.0 mph 12.0 mph 50% 0.00 in
17:59 77.8 °F 57.7 °F 30.08 in West 6.0 mph 10.0 mph 50% 0.00 in
18:04 77.1 °F 58.7 °F 30.09 in SW 8.0 mph 12.0 mph 53% 0.00 in
18:09 76.1 °F 60.3 °F 30.09 in SW 6.0 mph 9.0 mph 58% 0.00 in
18:14 75.2 °F 59.9 °F 30.08 in West 6.0 mph 10.0 mph 59% 0.00 in
18:19 73.1 °F 59.8 °F 30.08 in West 10.0 mph 16.0 mph 63% 0.98 in
18:24 69.8 °F 58.4 °F 30.08 in NW 4.0 mph 9.0 mph 67% 0.14 in
18:29 69.2 °F 59.0 °F 30.12 in SSW 18.0 mph 19.0 mph 70% 2.49 in
18:34 67.6 °F 59.0 °F 30.12 in ESE 8.0 mph 11.0 mph 74% 1.14 in
18:39 66.6 °F 59.2 °F 30.11 in NE 6.0 mph 9.0 mph 77% 0.22 in
18:44 66.2 °F 59.9 °F 30.11 in NW 5.0 mph 5.0 mph 80% 0.08 in
18:49 65.4 °F 60.5 °F 30.12 in WNW 1.0 mph 1.0 mph 84% 0.05 in
18:54 65.2 °F 60.6 °F 30.12 in SE 6.0 mph 7.0 mph 85% 0.00 in
18:59 65.0 °F 60.4 °F 30.12 in SE 3.0 mph 4.0 mph 85% 0.00 in
19:04 65.0 °F 60.7 °F 30.11 in East 1.0 mph 3.0 mph 86% 0.00 in
19:09 64.8 °F 60.8 °F 30.10 in North 2.0 mph 2.0 mph 87% 0.00 in
19:14 64.5 °F 60.9 °F 30.10 in NNW 2.0 mph 3.0 mph 88% 0.00 in
19:19 64.1 °F 60.8 °F 30.10 in NE 3.0 mph 3.0 mph 89% 0.00 in
19:24 64.0 °F 61.0 °F 30.11 in East 1.0 mph 2.0 mph 90% 0.00 in
19:29 64.0 °F 61.0 °F 30.10 in Calm   1.0 mph 90% 0.00 in
19:35 64.0 °F 60.7 °F 30.10 in SSE 2.0 mph 2.0 mph 89% 0.00 in
19:40 63.7 °F 60.7 °F 30.10 in SSE 3.0 mph 4.0 mph 90% 0.00 in
19:43 63.5 °F 60.5 °F 30.10 in East 2.0 mph 4.0 mph 90% 0.00 in
19:48 63.5 °F 60.5 °F 30.10 in East 4.0 mph 4.0 mph 90% 0.00 in
19:53 63.4 °F 60.4 °F 30.10 in ESE 5.0 mph 7.0 mph 90% 0.00 in
19:58 63.6 °F 60.6 °F 30.10 in East 7.0 mph 7.0 mph 90% 0.00 in
20:03 64.3 °F 60.7 °F 30.09 in SE 2.0 mph 4.0 mph 88% 0.00 in
20:08 64.2 °F 60.3 °F 30.08 in ESE 7.0 mph 7.0 mph 87% 0.00 in
20:13 63.8 °F 60.2 °F 30.08 in ESE 7.0 mph 11.0 mph 88% 0.00 in
20:19 63.8 °F 60.2 °F 30.08 in SE 8.0 mph 11.0 mph 88% 0.00 in
20:24 63.5 °F 59.9 °F 30.08 in SE 9.0 mph 10.0 mph 88% 0.00 in
20:29 63.3 °F 59.7 °F 30.08 in ESE 8.0 mph 14.0 mph 88% 0.00 in
20:34 63.2 °F 59.9 °F 30.09 in ESE 4.0 mph 9.0 mph 89% 0.00 in
20:39 63.1 °F 60.1 °F 30.14 in NW 9.0 mph 14.0 mph 90% 0.00 in
20:44 63.6 °F 60.3 °F 30.14 in NW 5.0 mph 7.0 mph 89% 0.00 in
20:49 64.5 °F 60.9 °F 30.14 in North 3.0 mph 6.0 mph 88% 0.00 in
20:54 65.1 °F 60.8 °F 30.14 in ENE 2.0 mph 5.0 mph 86% 0.00 in
20:59 65.4 °F 60.8 °F 30.15 in East 2.0 mph 4.0 mph 85% 0.00 in
21:04 65.2 °F 60.6 °F 30.15 in East 5.0 mph 5.0 mph 85% 0.00 in
21:09 65.3 °F 60.3 °F 30.15 in East 2.0 mph 5.0 mph 84% 0.00 in
21:14 65.4 °F 60.5 °F 30.16 in ENE 3.0 mph 7.0 mph 84% 0.00 in
21:19 65.0 °F 60.4 °F 30.16 in East 5.0 mph 7.0 mph 85% 0.00 in
21:24 64.6 °F 60.3 °F 30.17 in East 7.0 mph 9.0 mph 86% 0.00 in
21:29 64.1 °F 60.2 °F 30.17 in East 9.0 mph 11.0 mph 87% 0.00 in
21:34 63.8 °F 60.2 °F 30.16 in East 7.0 mph 11.0 mph 88% 0.00 in
21:39 63.6 °F 60.3 °F 30.16 in East 8.0 mph 10.0 mph 89% 0.00 in
21:44 63.6 °F 60.0 °F 30.16 in East 9.0 mph 10.0 mph 88% 0.00 in
21:49 63.7 °F 60.1 °F 30.16 in ENE 5.0 mph 6.0 mph 88% 0.00 in
21:54 63.5 °F 59.9 °F 30.15 in East 4.0 mph 7.0 mph 88% 0.00 in
21:59 63.4 °F 59.8 °F 30.15 in East 3.0 mph 6.0 mph 88% 0.00 in
22:04 63.3 °F 59.7 °F 30.15 in East 3.0 mph 4.0 mph 88% 0.00 in
22:09 63.1 °F 59.5 °F 30.15 in ESE 2.0 mph 3.0 mph 88% 0.00 in
22:14 62.8 °F 59.2 °F 30.15 in ESE 2.0 mph 3.0 mph 88% 0.00 in
22:20 62.6 °F 59.3 °F 30.15 in ESE 2.0 mph 3.0 mph 89% 0.00 in
22:25 62.4 °F 59.1 °F 30.15 in ESE 2.0 mph 4.0 mph 89% 0.00 in
22:30 62.3 °F 59.0 °F 30.15 in ESE 4.0 mph 4.0 mph 89% 0.00 in
22:35 62.3 °F 59.0 °F 30.15 in ESE 3.0 mph 4.0 mph 89% 0.00 in
22:40 62.3 °F 59.0 °F 30.15 in SE 2.0 mph 4.0 mph 89% 0.00 in
22:45 62.0 °F 58.7 °F 30.15 in ESE 4.0 mph 4.0 mph 89% 0.00 in
22:50 61.7 °F 58.7 °F 30.15 in ESE 2.0 mph 3.0 mph 90% 0.00 in
22:55 61.5 °F 58.5 °F 30.15 in Calm   2.0 mph 90% 0.00 in
23:00 61.4 °F 58.5 °F 30.14 in ENE 1.0 mph 1.0 mph 90% 0.00 in
23:05 61.4 °F 58.5 °F 30.14 in ENE 1.0 mph 1.0 mph 90% 0.00 in
23:10 61.4 °F 58.5 °F 30.14 in East 2.0 mph 3.0 mph 90% 0.00 in
23:15 61.5 °F 58.5 °F 30.14 in East 2.0 mph 2.0 mph 90% 0.00 in
23:20 61.6 °F 58.6 °F 30.14 in ENE 4.0 mph 5.0 mph 90% 0.00 in
23:25 61.8 °F 58.8 °F 30.14 in East 2.0 mph 6.0 mph 90% 0.00 in
23:30 61.8 °F 58.8 °F 30.15 in East 3.0 mph 5.0 mph 90% 0.00 in
23:35 61.5 °F 58.5 °F 30.14 in East 5.0 mph 5.0 mph 90% 0.00 in
23:36 61.5 °F 58.5 °F 30.14 in East 4.0 mph 5.0 mph 90% 0.00 in
23:41 61.3 °F 58.7 °F 30.14 in East 3.0 mph 5.0 mph 91% 0.00 in
23:46 61.1 °F 58.5 °F 30.15 in East 2.0 mph 4.0 mph 91% 0.00 in
23:51 60.8 °F 58.2 °F 30.15 in East 4.0 mph 5.0 mph 91% 0.00 in
23:56 60.9 °F 58.6 °F 30.15 in SE 2.0 mph 5.0 mph 92% 0.00 in
Compliments of Weather Underground